»·PEaware :: SKY96 KSBP-KOAR

SKY96 :: KSBP-KOAR

FLIGHT INFORMATION

Flight Status: Arrived
Operator:
Sky High Charters
More flights by this operator :: More flights under this callsign
Pilot: Russell S. (24346)
Aircraft: BEECH AIRCRAFT DEBONAIR BONANZA
(BE33)
More flights by this aircraft type
Origin: KSBP San Luis Co Regl
United States
Destination: KOAR Marina
United States
More flights between these airports :: More routes between these airports
Route: CREPE3 PRB V248 SARDO ZURET
File this flight plan on PilotEdge
Remarks:
Altitude:
(Current/Filed)
8,000ft
Speed:
(Current/Filed)
160kts
Departed: 14-Aug-19 01:58 PM
Arrived: 14-Aug-19 02:50 PM
Distance/Time
Traveled:
102nm/0:52
Distance/Time
To Go:
Arrived

Flight Plot

Page will automatically refresh every two minutes.


Map Options




Map Legend


Flown Route
Filed Route
Departure Airport
Arrival Airport
Navaid (VOR, NDB)
Fix

Horizontal Profiles

Position Reports

Time Latitude Longitude Heading Altitude Ground
Speed
14-Aug-19 13:46 35.234431 -120.632959 214 216ft 0kts
14-Aug-19 13:47 35.234431 -120.632959 214 216ft 0kts
14-Aug-19 13:48 35.234431 -120.632959 214 216ft 0kts
14-Aug-19 13:49 35.234431 -120.632959 214 216ft 0kts
14-Aug-19 13:50 35.234431 -120.632959 214 216ft 0kts
14-Aug-19 13:51 35.234431 -120.632959 214 216ft 0kts
14-Aug-19 13:52 35.234299 -120.633655 161 216ft 6kts
14-Aug-19 13:53 35.233291 -120.632298 206 216ft 0kts
14-Aug-19 13:54 35.233291 -120.632298 206 216ft 0kts
14-Aug-19 13:55 35.233291 -120.632298 206 216ft 0kts
14-Aug-19 13:56 35.232931 -120.633257 301 216ft 11kts
14-Aug-19 13:57 35.247250 -120.655729 304 732ft 111kts
14-Aug-19 13:58 35.267466 -120.688931 296 1572ft 128kts
14-Aug-19 13:59 35.284968 -120.728012 295 2377ft 133kts
14-Aug-19 14:00 35.305096 -120.764897 301 3265ft 123kts
14-Aug-19 14:01 35.324166 -120.797133 301 4239ft 111kts
14-Aug-19 14:02 35.341008 -120.825509 300 5203ft 95kts
14-Aug-19 14:03 35.357135 -120.852809 303 5909ft 103kts
14-Aug-19 14:04 35.384829 -120.848085 29 6611ft 111kts
14-Aug-19 14:05 35.411054 -120.828476 30 7270ft 111kts
14-Aug-19 14:06 35.437583 -120.808291 32 7888ft 110kts
14-Aug-19 14:07 35.466351 -120.786114 34 8029ft 139kts
14-Aug-19 14:08 35.501608 -120.758946 33 8020ft 155kts
14-Aug-19 14:09 35.538675 -120.730420 33 8018ft 159kts
14-Aug-19 14:10 35.576327 -120.701395 33 8017ft 160kts
14-Aug-19 14:11 35.613961 -120.672377 33 8017ft 160kts
14-Aug-19 14:12 35.651713 -120.643223 33 8017ft 160kts
14-Aug-19 14:13 35.693931 -120.636176 345 8018ft 164kts
14-Aug-19 14:14 35.737623 -120.653165 343 8017ft 165kts
14-Aug-19 14:15 35.781375 -120.670662 343 8017ft 165kts
14-Aug-19 14:16 35.824909 -120.688063 343 8017ft 165kts
14-Aug-19 14:17 35.868626 -120.705553 343 8017ft 165kts
14-Aug-19 14:18 35.912431 -120.723097 343 8017ft 165kts
14-Aug-19 14:19 35.956064 -120.740593 343 8018ft 165kts
14-Aug-19 14:20 35.999810 -120.758155 343 8018ft 165kts
14-Aug-19 14:21 36.043525 -120.775724 343 8018ft 165kts
14-Aug-19 14:22 36.086538 -120.795126 321 8019ft 166kts
14-Aug-19 14:23 36.120281 -120.834975 316 8018ft 167kts
14-Aug-19 14:24 36.153156 -120.875925 315 8018ft 167kts
14-Aug-19 14:25 36.185854 -120.916921 315 8018ft 167kts
14-Aug-19 14:26 36.218528 -120.957964 315 8018ft 167kts
14-Aug-19 14:27 36.251287 -120.999182 315 8018ft 168kts
14-Aug-19 14:28 36.284092 -121.040502 315 8018ft 168kts
14-Aug-19 14:30 36.317000 -121.081995 315 8018ft 169kts
14-Aug-19 14:31 36.350338 -121.124091 316 7799ft 177kts
14-Aug-19 14:32 36.384664 -121.167580 316 7301ft 176kts
14-Aug-19 14:33 36.418964 -121.210320 311 6804ft 172kts
14-Aug-19 14:34 36.451994 -121.252686 311 6298ft 168kts
14-Aug-19 14:35 36.483789 -121.293047 311 6013ft 154kts
14-Aug-19 14:36 36.512207 -121.329981 311 5957ft 149kts
14-Aug-19 14:37 36.536453 -121.372655 308 5316ft 131kts
14-Aug-19 14:38 36.555548 -121.407180 309 4647ft 115kts
14-Aug-19 14:39 36.572001 -121.436425 299 4520ft 99kts
14-Aug-19 14:40 36.588628 -121.466940 301 3843ft 106kts
14-Aug-19 14:41 36.605522 -121.497671 302 3782ft 107kts
14-Aug-19 14:42 36.622214 -121.527775 302 3360ft 104kts
14-Aug-19 14:43 36.638476 -121.557482 302 2882ft 102kts
14-Aug-19 14:44 36.654406 -121.586369 303 2879ft 100kts
14-Aug-19 14:45 36.665172 -121.618496 280 2549ft 101kts
14-Aug-19 14:46 36.668700 -121.653389 279 1756ft 102kts
14-Aug-19 14:46 36.671488 -121.681884 280 1341ft 97kts
14-Aug-19 14:48 36.675413 -121.721347 278 813ft 93kts
14-Aug-19 14:49 36.675379 -121.749801 300 396ft 74kts
14-Aug-19 14:49 36.681645 -121.761997 287 132ft 7kts
14-Aug-19 14:51 36.681479 -121.762684 217 134ft 0kts
14-Aug-19 14:51 36.681479 -121.762684 217 134ft 0kts

Navigation Log

Ident Type
Flight plan parsing failed, navigation log unavailable